createdAt,value
2018-08-16T00:01:08.568Z,3.95
2018-08-16T00:03:39.454Z,3.94
2018-08-16T00:06:08.806Z,3.93
2018-08-16T00:08:37.194Z,3.92
2018-08-16T00:11:05.236Z,3.91
2018-08-16T00:13:33.405Z,3.87
2018-08-16T00:16:01.623Z,3.86
2018-08-16T00:18:29.417Z,3.78
2018-08-16T00:20:58.592Z,3.72
2018-08-16T00:23:26.380Z,3.68
2018-08-16T00:25:54.171Z,3.67
2018-08-16T00:28:22.005Z,3.67
2018-08-16T00:30:49.729Z,3.67
2018-08-16T00:33:17.550Z,3.67
2018-08-16T00:35:45.443Z,3.67
2018-08-16T00:38:13.620Z,3.67
2018-08-16T00:40:41.408Z,3.60
2018-08-16T00:43:09.250Z,3.56
2018-08-16T00:45:37.096Z,3.50
2018-08-16T00:48:06.806Z,3.47
2018-08-16T00:50:34.593Z,3.49
2018-08-16T00:53:02.684Z,3.48
2018-08-16T00:55:30.513Z,3.47
2018-08-16T00:57:58.259Z,3.47
2018-08-16T01:00:26.065Z,3.52
2018-08-16T01:02:53.882Z,3.54
2018-08-16T01:05:21.697Z,3.50
2018-08-16T01:07:49.480Z,3.47
2018-08-16T01:10:17.351Z,3.45
2018-08-16T01:12:45.115Z,3.44
2018-08-16T01:15:15.926Z,3.45
2018-08-16T01:17:44.200Z,3.40
2018-08-16T01:20:12.105Z,3.33
2018-08-16T01:22:40.033Z,3.31
2018-08-16T01:25:09.456Z,3.28
2018-08-16T01:27:37.505Z,3.29
2018-08-16T01:30:06.231Z,3.29
2018-08-16T01:32:34.040Z,3.26
2018-08-16T01:35:01.837Z,3.19
2018-08-16T01:37:29.660Z,3.17
2018-08-16T01:39:57.533Z,3.16
2018-08-16T01:42:25.361Z,3.15
2018-08-16T01:44:53.148Z,3.12
2018-08-16T01:47:20.892Z,3.11
2018-08-16T01:49:48.703Z,3.08
2018-08-16T01:52:16.448Z,2.98
2018-08-16T01:54:44.240Z,2.95
2018-08-16T01:57:12.048Z,2.95
2018-08-16T01:59:39.863Z,2.93
2018-08-16T02:02:07.795Z,2.83
2018-08-16T02:04:35.520Z,2.74
2018-08-16T02:07:03.744Z,2.67
2018-08-16T02:09:31.776Z,2.60
2018-08-16T02:11:59.588Z,2.57
2018-08-16T02:14:27.383Z,2.55
2018-08-16T02:16:55.182Z,2.55
2018-08-16T02:19:23.020Z,2.60
2018-08-16T02:21:51.249Z,2.65
2018-08-16T02:24:19.004Z,2.68
2018-08-16T02:26:46.825Z,2.68
2018-08-16T02:29:14.655Z,2.67
2018-08-16T02:31:42.477Z,2.65
2018-08-16T02:34:10.273Z,2.59
2018-08-16T02:36:38.017Z,2.57
2018-08-16T02:39:08.449Z,2.56
2018-08-16T02:41:36.577Z,2.57
2018-08-16T02:44:05.197Z,2.58
2018-08-16T02:46:33.005Z,2.60
2018-08-16T02:49:00.866Z,2.59
2018-08-16T02:51:28.688Z,2.65
2018-08-16T02:53:56.404Z,2.63
2018-08-16T02:56:24.296Z,2.60
2018-08-16T02:58:52.071Z,2.57
2018-08-16T03:01:19.824Z,2.58
2018-08-16T03:03:47.621Z,2.62
2018-08-16T03:06:15.469Z,2.66
2018-08-16T03:08:43.246Z,2.69
2018-08-16T03:11:11.063Z,2.74
2018-08-16T03:13:38.900Z,2.76
2018-08-16T03:16:07.007Z,2.77
2018-08-16T03:18:34.792Z,2.78
2018-08-16T03:21:02.569Z,2.82
2018-08-16T03:23:30.372Z,2.86
2018-08-16T03:25:58.449Z,2.89
2018-08-16T03:28:26.202Z,2.95
2018-08-16T03:30:54.034Z,3.06
2018-08-16T03:33:21.835Z,3.09
2018-08-16T03:35:49.595Z,3.18
2018-08-16T03:38:17.373Z,3.31
2018-08-16T03:40:45.173Z,3.43
2018-08-16T03:43:12.919Z,3.46
2018-08-16T03:45:41.445Z,3.51
2018-08-16T03:48:09.274Z,3.52
2018-08-16T03:50:37.064Z,3.59
2018-08-16T03:53:05.179Z,3.74
2018-08-16T03:55:33.027Z,3.88
2018-08-16T03:58:00.773Z,4.02
2018-08-16T04:00:28.562Z,4.18
2018-08-16T04:02:56.357Z,4.37
2018-08-16T04:05:24.082Z,4.60
2018-08-16T04:07:51.832Z,4.84
2018-08-16T04:10:19.572Z,5.05
2018-08-16T04:12:47.269Z,5.27
2018-08-16T04:15:15.088Z,5.48
2018-08-16T04:17:42.817Z,5.66
2018-08-16T04:20:10.636Z,5.83
2018-08-16T04:22:38.393Z,6.03
2018-08-16T04:25:06.332Z,6.26
2018-08-16T04:27:34.088Z,6.46
2018-08-16T04:30:01.836Z,6.64
2018-08-16T04:32:29.603Z,6.77
2018-08-16T04:34:57.702Z,6.81
2018-08-16T04:37:25.899Z,6.84
2018-08-16T04:39:53.661Z,6.96
2018-08-16T04:42:21.434Z,7.09
2018-08-16T04:44:49.551Z,7.25
2018-08-16T04:47:17.274Z,7.47
2018-08-16T04:49:45.046Z,7.71
2018-08-16T04:52:12.833Z,7.94
2018-08-16T04:54:40.676Z,8.30
2018-08-16T04:57:08.438Z,8.77
2018-08-16T04:59:36.602Z,8.92
2018-08-16T05:02:05.532Z,8.97
2018-08-16T05:04:33.289Z,9.11
2018-08-16T05:07:01.436Z,9.24
2018-08-16T05:09:29.182Z,9.41
2018-08-16T05:11:57.259Z,9.58
2018-08-16T05:14:25.061Z,9.74
2018-08-16T05:16:52.846Z,9.91
2018-08-16T05:19:20.633Z,10.55
2018-08-16T05:21:48.360Z,11.16
2018-08-16T05:24:16.099Z,11.88
2018-08-16T05:26:43.893Z,12.63
2018-08-16T05:29:11.647Z,13.27
2018-08-16T05:31:39.495Z,13.30
2018-08-16T05:34:07.332Z,13.45
2018-08-16T05:36:35.171Z,13.50
2018-08-16T05:39:04.361Z,13.63
2018-08-16T05:41:32.157Z,13.91
2018-08-16T05:44:00.031Z,14.12
2018-08-16T05:46:27.832Z,14.15
2018-08-16T05:48:55.604Z,14.21
2018-08-16T05:51:23.427Z,14.26
2018-08-16T05:53:51.614Z,14.22
2018-08-16T05:56:19.421Z,14.23
2018-08-16T05:58:47.211Z,14.33
2018-08-16T06:01:15.012Z,14.58
2018-08-16T06:03:42.791Z,14.91
2018-08-16T06:06:10.621Z,15.28
2018-08-16T06:08:38.640Z,15.68
2018-08-16T06:11:06.472Z,16.21
2018-08-16T06:13:34.642Z,16.40
2018-08-16T06:16:02.408Z,16.74
2018-08-16T06:18:30.734Z,17.07
2018-08-16T06:20:58.584Z,17.48
2018-08-16T06:23:26.425Z,18.02
2018-08-16T06:25:54.181Z,18.55
2018-08-16T06:28:21.955Z,19.13
2018-08-16T06:30:49.680Z,18.99
2018-08-16T06:33:17.482Z,19.19
2018-08-16T06:35:45.289Z,18.92
2018-08-16T06:38:13.073Z,18.94
2018-08-16T06:40:40.880Z,18.79
2018-08-16T06:43:08.754Z,18.66
2018-08-16T06:45:36.566Z,18.66
2018-08-16T06:48:04.384Z,19.07
2018-08-16T06:50:32.194Z,19.24
2018-08-16T06:52:59.972Z,19.37
2018-08-16T06:55:27.834Z,19.65
2018-08-16T06:57:55.617Z,19.65
2018-08-16T07:00:23.380Z,19.96
2018-08-16T07:02:51.139Z,20.49
2018-08-16T07:05:18.885Z,20.88
2018-08-16T07:07:46.722Z,21.26
2018-08-16T07:10:14.780Z,21.50
2018-08-16T07:12:42.590Z,21.57
2018-08-16T07:15:13.193Z,21.40
2018-08-16T07:17:41.589Z,21.12
2018-08-16T07:20:09.462Z,21.09
2018-08-16T07:22:37.233Z,21.52
2018-08-16T07:25:05.765Z,21.52
2018-08-16T07:27:33.569Z,21.81
2018-08-16T07:30:01.402Z,22.07
2018-08-16T07:32:29.184Z,22.46
2018-08-16T07:34:57.015Z,22.84
2018-08-16T07:37:24.794Z,22.49
2018-08-16T07:39:52.604Z,21.88
2018-08-16T07:42:20.492Z,21.78
2018-08-16T07:44:48.320Z,21.87
2018-08-16T07:47:16.135Z,21.42
2018-08-16T07:49:43.986Z,21.38
2018-08-16T07:52:11.892Z,21.57
2018-08-16T07:54:39.662Z,21.53
2018-08-16T07:57:07.458Z,21.71
2018-08-16T07:59:35.482Z,21.71
2018-08-16T08:02:03.754Z,21.86
2018-08-16T08:04:31.589Z,21.94
2018-08-16T08:06:59.527Z,21.82
2018-08-16T08:09:27.424Z,22.29
2018-08-16T08:11:55.145Z,22.76
2018-08-16T08:14:22.971Z,22.69
2018-08-16T08:16:50.736Z,22.85
2018-08-16T08:19:18.564Z,23.44
2018-08-16T08:21:46.443Z,23.71
2018-08-16T08:24:14.221Z,23.79
2018-08-16T08:26:42.053Z,23.80
2018-08-16T08:29:09.916Z,23.77
2018-08-16T08:31:37.813Z,23.42
2018-08-16T08:34:05.659Z,23.63
2018-08-16T08:36:44.656Z,23.28
2018-08-16T08:39:12.417Z,22.79
2018-08-16T08:41:40.236Z,22.63
2018-08-16T08:44:17.135Z,22.58
2018-08-16T08:46:45.676Z,22.40
2018-08-16T08:49:13.520Z,23.04
2018-08-16T08:51:41.333Z,23.00
2018-08-16T08:54:34.152Z,23.40
2018-08-16T08:57:13.224Z,23.44
2018-08-16T08:59:41.340Z,23.18
2018-08-16T09:02:10.323Z,23.34
2018-08-16T09:04:38.164Z,23.32
2018-08-16T09:07:08.380Z,23.27
2018-08-16T09:09:36.276Z,23.10
2018-08-16T09:12:15.981Z,22.71
2018-08-16T09:14:55.505Z,22.76
2018-08-16T09:17:23.363Z,23.08
2018-08-16T09:19:51.240Z,23.05
2018-08-16T09:22:19.028Z,22.71
2018-08-16T09:24:46.945Z,22.48
2018-08-16T09:27:14.712Z,22.33
2018-08-16T09:30:20.066Z,22.08
2018-08-16T09:32:59.165Z,22.13
2018-08-16T09:35:27.425Z,22.23
2018-08-16T09:37:56.808Z,22.28
2018-08-16T09:40:24.750Z,22.48
2018-08-16T09:42:52.708Z,22.41
2018-08-16T09:45:32.433Z,22.38
2018-08-16T09:48:11.760Z,22.67
2018-08-16T09:50:39.536Z,22.88
2018-08-16T09:53:09.556Z,22.62
2018-08-16T09:55:37.437Z,22.19
2018-08-16T09:58:06.125Z,22.17
2018-08-16T10:00:39.397Z,21.92
2018-08-16T10:03:07.240Z,21.91
2018-08-16T10:05:35.264Z,21.80
2018-08-16T10:08:03.118Z,21.81
2018-08-16T10:10:31.136Z,21.87
2018-08-16T10:12:58.888Z,21.77
2018-08-16T10:15:26.716Z,21.86
2018-08-16T10:17:54.551Z,21.75
2018-08-16T10:20:22.380Z,21.72
2018-08-16T10:22:50.188Z,21.88
2018-08-16T10:25:18.016Z,21.81
2018-08-16T10:27:46.116Z,21.78
2018-08-16T10:30:14.709Z,21.95
2018-08-16T10:32:43.812Z,22.04
2018-08-16T10:35:11.559Z,22.38
2018-08-16T10:37:39.663Z,22.61
2018-08-16T10:40:09.432Z,22.71
2018-08-16T10:42:37.270Z,22.74
2018-08-16T10:45:06.230Z,22.65
2018-08-16T10:47:34.045Z,22.21
2018-08-16T10:50:02.731Z,22.55
2018-08-16T10:52:30.565Z,22.58
2018-08-16T10:54:58.660Z,22.72
2018-08-16T10:57:26.464Z,22.50
2018-08-16T10:59:54.272Z,22.82
2018-08-16T11:02:22.488Z,22.87
2018-08-16T11:04:50.366Z,22.97
2018-08-16T11:07:18.171Z,22.88
2018-08-16T11:09:46.416Z,23.06
2018-08-16T11:12:14.252Z,23.45
2018-08-16T11:14:42.184Z,23.41
2018-08-16T11:17:10.007Z,23.37
2018-08-16T11:19:37.752Z,23.29
2018-08-16T11:22:06.125Z,23.13
2018-08-16T11:24:33.955Z,23.10
2018-08-16T11:27:01.722Z,23.20
2018-08-16T11:29:29.579Z,23.44
2018-08-16T11:31:57.349Z,23.49
2018-08-16T11:34:25.121Z,23.77
2018-08-16T11:36:53.293Z,23.77
2018-08-16T11:39:21.176Z,23.51
2018-08-16T11:41:48.964Z,23.52
2018-08-16T11:44:16.703Z,23.38
2018-08-16T11:46:44.546Z,23.01
2018-08-16T11:49:12.328Z,23.03
2018-08-16T11:51:40.084Z,23.16
2018-08-16T11:54:07.922Z,23.17
2018-08-16T11:56:35.752Z,23.05
2018-08-16T11:59:03.602Z,22.85
2018-08-16T12:01:31.437Z,22.99
2018-08-16T12:04:05.796Z,22.74
2018-08-16T12:06:33.596Z,22.30
2018-08-16T12:09:01.402Z,22.18
2018-08-16T12:11:29.166Z,22.17
2018-08-16T12:13:56.960Z,22.32
2018-08-16T12:16:24.910Z,22.33
2018-08-16T12:18:52.656Z,22.36
2018-08-16T12:21:20.400Z,21.98
2018-08-16T12:23:48.171Z,21.82
2018-08-16T12:26:16.004Z,21.28
2018-08-16T12:28:43.756Z,21.21
2018-08-16T12:31:11.503Z,21.30
2018-08-16T12:33:39.297Z,21.34
2018-08-16T12:36:07.132Z,21.38
2018-08-16T12:38:34.893Z,21.21
2018-08-16T12:41:03.216Z,21.08
2018-08-16T12:43:34.423Z,20.88
2018-08-16T12:46:02.237Z,21.09
2018-08-16T12:48:29.984Z,21.07
2018-08-16T12:50:57.734Z,21.11
2018-08-16T12:53:25.607Z,21.38
2018-08-16T12:55:53.373Z,21.29
2018-08-16T12:58:21.204Z,21.30
2018-08-16T13:00:49.013Z,21.08
2018-08-16T13:03:16.853Z,21.25
2018-08-16T13:05:44.652Z,21.19
2018-08-16T13:08:12.589Z,20.81
2018-08-16T13:10:40.389Z,20.86
2018-08-16T13:13:08.234Z,20.83
2018-08-16T13:15:39.223Z,20.61
2018-08-16T13:18:07.073Z,20.52
2018-08-16T13:20:34.901Z,20.39
2018-08-16T13:23:02.718Z,20.30
2018-08-16T13:25:30.525Z,20.45
2018-08-16T13:27:58.414Z,20.26
2018-08-16T13:30:26.219Z,20.27
2018-08-16T13:32:54.043Z,20.05
2018-08-16T13:35:21.925Z,19.99
2018-08-16T13:37:49.855Z,20.10
2018-08-16T13:40:17.827Z,20.04
2018-08-16T13:42:46.333Z,19.93
2018-08-16T13:45:14.481Z,20.03
2018-08-16T13:47:43.941Z,20.13
2018-08-16T13:50:11.755Z,20.00
2018-08-16T13:52:39.847Z,19.68
2018-08-16T13:55:07.863Z,19.58
2018-08-16T13:57:35.869Z,19.74
2018-08-16T14:00:05.136Z,19.77
2018-08-16T14:02:33.081Z,19.76
2018-08-16T14:05:00.934Z,19.68
2018-08-16T14:07:28.685Z,19.68
2018-08-16T14:09:56.472Z,19.64
2018-08-16T14:12:24.295Z,19.76
2018-08-16T14:14:52.068Z,19.89
2018-08-16T14:17:19.982Z,20.00
2018-08-16T14:19:48.164Z,19.82
2018-08-16T14:22:16.276Z,19.63
2018-08-16T14:24:44.095Z,19.43
2018-08-16T14:27:12.813Z,19.32
2018-08-16T14:29:40.763Z,19.18
2018-08-16T14:32:08.763Z,19.10
2018-08-16T14:34:36.461Z,19.04
2018-08-16T14:37:05.069Z,18.96
2018-08-16T14:39:32.903Z,18.79
2018-08-16T14:42:00.871Z,18.75
2018-08-16T14:44:29.056Z,18.69
2018-08-16T14:46:57.238Z,18.54
2018-08-16T14:49:24.971Z,18.53
2018-08-16T14:51:52.803Z,18.49
2018-08-16T14:54:20.604Z,18.36
2018-08-16T14:56:48.369Z,18.33
2018-08-16T14:59:16.188Z,18.35
2018-08-16T15:01:44.098Z,18.42
2018-08-16T15:04:11.959Z,18.39
2018-08-16T15:06:40.708Z,18.30
2018-08-16T15:09:10.004Z,18.30
2018-08-16T15:11:37.922Z,18.25
2018-08-16T15:14:06.198Z,18.31
2018-08-16T15:16:34.039Z,18.33
2018-08-16T15:19:02.712Z,18.26
2018-08-16T15:21:32.200Z,18.29
2018-08-16T15:24:01.076Z,18.25
2018-08-16T15:26:28.905Z,18.21
2018-08-16T15:28:57.926Z,18.17
2018-08-16T15:31:26.485Z,18.15
2018-08-16T15:33:54.950Z,18.17
2018-08-16T15:36:23.972Z,18.14
2018-08-16T15:38:52.121Z,18.11
2018-08-16T15:41:19.928Z,18.08
2018-08-16T15:43:48.065Z,18.07
2018-08-16T15:46:16.336Z,18.11
2018-08-16T15:48:46.286Z,18.08
2018-08-16T15:51:15.584Z,18.05
2018-08-16T15:53:44.152Z,18.05
2018-08-16T15:56:12.274Z,18.02
2018-08-16T15:58:40.548Z,18.01
2018-08-16T16:01:08.592Z,17.96
2018-08-16T16:03:36.519Z,17.93
2018-08-16T16:06:05.954Z,17.92
2018-08-16T16:08:35.905Z,17.88
2018-08-16T16:11:04.063Z,17.87
2018-08-16T16:13:32.200Z,17.91
2018-08-16T16:16:00.335Z,17.91
2018-08-16T16:18:28.545Z,17.88
2018-08-16T16:20:57.512Z,17.90
2018-08-16T16:23:27.537Z,17.89
2018-08-16T16:25:59.180Z,17.82
2018-08-16T16:28:27.368Z,17.87
2018-08-16T16:30:55.909Z,17.86
2018-08-16T16:33:25.416Z,17.87
2018-08-16T16:35:53.480Z,17.86
2018-08-16T16:38:21.700Z,17.87
2018-08-16T16:40:49.763Z,17.76
2018-08-16T16:43:19.967Z,17.81
2018-08-16T16:45:47.764Z,17.78
2018-08-16T16:48:15.588Z,17.81
2018-08-16T16:50:43.392Z,17.78
2018-08-16T16:53:11.155Z,17.74
2018-08-16T16:55:38.986Z,17.74
2018-08-16T16:58:07.082Z,17.75
2018-08-16T17:00:34.999Z,17.76
2018-08-16T17:03:03.279Z,17.75
2018-08-16T17:05:31.022Z,17.77
2018-08-16T17:07:58.885Z,17.78
2018-08-16T17:10:26.773Z,17.76
2018-08-16T17:12:54.568Z,17.76
2018-08-16T17:15:22.410Z,17.76
2018-08-16T17:17:50.182Z,17.73
2018-08-16T17:20:18.005Z,17.76
2018-08-16T17:22:45.830Z,17.74
2018-08-16T17:25:13.645Z,17.72
2018-08-16T17:27:41.437Z,17.72
2018-08-16T17:30:09.262Z,17.70
2018-08-16T17:32:37.036Z,17.71
2018-08-16T17:35:04.836Z,17.69
2018-08-16T17:37:32.664Z,17.72
2018-08-16T17:40:00.460Z,17.71
2018-08-16T17:42:28.178Z,17.72
2018-08-16T17:44:56.338Z,17.71
2018-08-16T17:47:24.124Z,17.68
2018-08-16T17:49:51.871Z,17.68
2018-08-16T17:52:19.674Z,17.67
2018-08-16T17:54:47.503Z,17.65
2018-08-16T17:57:15.283Z,17.61
2018-08-16T17:59:43.129Z,17.61
2018-08-16T18:02:10.887Z,17.63
2018-08-16T18:04:38.679Z,17.63
2018-08-16T18:07:06.464Z,17.61
2018-08-16T18:09:34.407Z,17.59
2018-08-16T18:12:02.197Z,17.56
2018-08-16T18:14:29.957Z,17.56
2018-08-16T18:16:57.780Z,17.54
2018-08-16T18:19:25.572Z,17.54
2018-08-16T18:21:53.317Z,17.53
2018-08-16T18:24:21.158Z,17.50
2018-08-16T18:26:48.944Z,17.49
2018-08-16T18:29:17.352Z,17.49
2018-08-16T18:31:45.157Z,17.44
2018-08-16T18:34:12.945Z,17.46
2018-08-16T18:36:40.734Z,17.42
2018-08-16T18:39:09.092Z,17.38
2018-08-16T18:41:37.194Z,17.36
2018-08-16T18:44:05.073Z,17.34
2018-08-16T18:46:32.915Z,17.31
2018-08-16T18:49:00.638Z,17.33
2018-08-16T18:51:29.070Z,17.30
2018-08-16T18:53:57.465Z,17.29
2018-08-16T18:56:26.343Z,17.27
2018-08-16T18:58:54.577Z,17.26
2018-08-16T19:01:22.468Z,17.24
2018-08-16T19:03:51.616Z,17.23
2018-08-16T19:06:19.456Z,17.24
2018-08-16T19:08:51.715Z,17.24
2018-08-16T19:11:20.492Z,17.26
2018-08-16T19:13:49.326Z,17.26
2018-08-16T19:16:17.153Z,17.25
2018-08-16T19:18:45.075Z,17.25
2018-08-16T19:21:14.514Z,17.26
2018-08-16T19:23:43.662Z,17.26
2018-08-16T19:26:12.678Z,17.30
2018-08-16T19:28:40.954Z,17.29
2018-08-16T19:31:08.759Z,17.29
2018-08-16T19:33:36.568Z,17.28
2018-08-16T19:36:04.446Z,17.26
2018-08-16T19:38:32.279Z,17.29
2018-08-16T19:41:00.096Z,17.29
2018-08-16T19:43:27.862Z,17.26
2018-08-16T19:45:55.630Z,17.28
2018-08-16T19:48:23.401Z,17.27
2018-08-16T19:50:51.179Z,17.26
2018-08-16T19:53:18.941Z,17.27
2018-08-16T19:55:46.800Z,17.28
2018-08-16T19:58:14.552Z,17.29
2018-08-16T20:00:42.383Z,17.30
2018-08-16T20:03:10.234Z,17.30
2018-08-16T20:05:38.084Z,17.33
2018-08-16T20:08:06.341Z,17.34
2018-08-16T20:10:35.141Z,17.35
2018-08-16T20:13:03.350Z,17.35
2018-08-16T20:15:31.224Z,17.36
2018-08-16T20:18:00.074Z,17.36
2018-08-16T20:20:27.962Z,17.37
2018-08-16T20:22:55.773Z,17.39
2018-08-16T20:25:23.534Z,17.41
2018-08-16T20:27:51.641Z,17.41
2018-08-16T20:30:19.521Z,17.42
2018-08-16T20:32:47.833Z,17.44
2018-08-16T20:35:15.612Z,17.45
2018-08-16T20:37:44.504Z,17.44
2018-08-16T20:40:12.294Z,17.45
2018-08-16T20:42:40.130Z,17.46
2018-08-16T20:45:08.947Z,17.47
2018-08-16T20:47:37.255Z,17.47
2018-08-16T20:50:06.578Z,17.48
2018-08-16T20:52:34.411Z,17.48
2018-08-16T20:55:02.207Z,17.46
2018-08-16T20:57:30.165Z,17.47
2018-08-16T20:59:57.845Z,17.45
2018-08-16T21:02:25.608Z,17.45
2018-08-16T21:04:53.436Z,17.46
2018-08-16T21:07:21.207Z,17.44
2018-08-16T21:09:50.068Z,17.42
2018-08-16T21:12:17.946Z,17.40
2018-08-16T21:14:46.442Z,17.38
2018-08-16T21:17:14.255Z,17.33
2018-08-16T21:19:42.035Z,17.37
2018-08-16T21:22:09.825Z,17.36
2018-08-16T21:24:37.585Z,17.36
2018-08-16T21:27:05.335Z,17.36
2018-08-16T21:29:33.071Z,17.34
2018-08-16T21:32:00.848Z,17.33
2018-08-16T21:34:28.876Z,17.33
2018-08-16T21:36:56.942Z,17.32
2018-08-16T21:39:24.778Z,17.32
2018-08-16T21:41:52.713Z,17.33
2018-08-16T21:44:20.553Z,17.32
2018-08-16T21:46:48.365Z,17.33
2018-08-16T21:49:16.102Z,17.32
2018-08-16T21:51:43.871Z,17.31
2018-08-16T21:54:11.664Z,17.31
2018-08-16T21:56:39.453Z,17.31
2018-08-16T21:59:07.279Z,17.32
2018-08-16T22:01:35.241Z,17.31
2018-08-16T22:04:03.083Z,17.32
2018-08-16T22:06:42.152Z,17.32
2018-08-16T22:09:11.642Z,17.33
2018-08-16T22:11:39.620Z,17.33
2018-08-16T22:14:07.460Z,17.33
2018-08-16T22:16:35.169Z,17.34
2018-08-16T22:19:03.034Z,17.35
2018-08-16T22:21:30.772Z,17.35
2018-08-16T22:23:58.553Z,17.35
2018-08-16T22:26:26.400Z,17.35
2018-08-16T22:28:54.128Z,17.37
2018-08-16T22:31:21.964Z,17.38
2018-08-16T22:33:49.788Z,17.40
2018-08-16T22:36:17.665Z,17.41
2018-08-16T22:38:48.883Z,17.41
2018-08-16T22:41:16.789Z,17.41
2018-08-16T22:43:44.524Z,17.42
2018-08-16T22:46:13.366Z,17.43
2018-08-16T22:48:41.154Z,17.43
2018-08-16T22:51:08.938Z,17.43
2018-08-16T22:53:37.037Z,17.45
2018-08-16T22:56:07.281Z,17.44
2018-08-16T22:58:35.073Z,17.44
2018-08-16T23:01:02.936Z,17.45
2018-08-16T23:03:30.863Z,17.45
2018-08-16T23:05:58.589Z,17.46
2018-08-16T23:08:26.411Z,17.45
2018-08-16T23:10:54.185Z,17.44
2018-08-16T23:13:22.256Z,17.42
2018-08-16T23:15:50.076Z,17.41
2018-08-16T23:18:17.876Z,17.42
2018-08-16T23:20:45.692Z,17.42
2018-08-16T23:23:13.455Z,17.42
2018-08-16T23:25:41.312Z,17.42
2018-08-16T23:28:09.096Z,17.43
2018-08-16T23:30:36.927Z,17.40
2018-08-16T23:33:04.768Z,17.39
2018-08-16T23:35:32.549Z,17.39
2018-08-16T23:38:01.615Z,17.40
2018-08-16T23:40:29.472Z,17.40
2018-08-16T23:42:57.212Z,17.40
2018-08-16T23:45:25.017Z,17.39
2018-08-16T23:48:04.234Z,17.38
2018-08-16T23:50:32.035Z,17.37
2018-08-16T23:53:00.142Z,17.37
2018-08-16T23:55:28.168Z,17.36
2018-08-16T23:57:55.917Z,17.37
